createdAt,value
2018-12-08T00:01:30.605Z,29.90
2018-12-08T00:04:05.063Z,29.90
2018-12-08T00:06:39.324Z,29.90
2018-12-08T00:09:14.611Z,29.80
2018-12-08T00:11:48.743Z,29.80
2018-12-08T00:14:23.336Z,29.80
2018-12-08T00:16:58.206Z,29.80
2018-12-08T00:19:32.641Z,29.90
2018-12-08T00:22:07.119Z,29.90
2018-12-08T00:24:40.794Z,29.90
2018-12-08T00:27:14.992Z,29.90
2018-12-08T00:29:48.706Z,29.90
2018-12-08T00:32:23.038Z,29.90
2018-12-08T00:34:56.880Z,30.00
2018-12-08T00:37:31.087Z,30.00
2018-12-08T00:40:06.613Z,30.00
2018-12-08T00:42:44.266Z,30.00
2018-12-08T00:45:18.714Z,30.00
2018-12-08T00:47:52.556Z,30.00
2018-12-08T00:50:26.823Z,30.00
2018-12-08T00:53:01.769Z,30.00
2018-12-08T00:55:37.081Z,30.00
2018-12-08T00:58:11.128Z,30.10
2018-12-08T01:00:45.055Z,30.10
2018-12-08T01:03:19.058Z,30.10
2018-12-08T01:05:55.902Z,30.20
2018-12-08T01:08:30.179Z,30.10
2018-12-08T01:11:04.429Z,30.20
2018-12-08T01:13:38.724Z,30.20
2018-12-08T01:16:13.061Z,30.30
2018-12-08T01:18:46.962Z,30.30
2018-12-08T01:21:22.046Z,30.30
2018-12-08T01:23:58.087Z,30.30
2018-12-08T01:26:32.177Z,30.30
2018-12-08T01:29:06.338Z,30.40
2018-12-08T01:31:40.380Z,30.40
2018-12-08T01:34:15.606Z,30.40
2018-12-08T01:36:49.632Z,30.50
2018-12-08T01:39:23.618Z,30.50
2018-12-08T01:41:57.740Z,30.50
2018-12-08T01:44:31.708Z,30.50
2018-12-08T01:47:07.181Z,30.50
2018-12-08T01:49:41.357Z,30.50
2018-12-08T01:52:15.608Z,30.60
2018-12-08T01:54:49.600Z,30.60
2018-12-08T01:57:23.426Z,30.60
2018-12-08T01:59:58.651Z,30.70
2018-12-08T02:02:33.211Z,30.60
2018-12-08T02:05:07.305Z,30.70
2018-12-08T02:07:42.487Z,30.70
2018-12-08T02:10:16.186Z,30.70
2018-12-08T02:12:49.991Z,30.70
2018-12-08T02:15:24.159Z,30.80
2018-12-08T02:17:57.930Z,30.80
2018-12-08T02:20:31.971Z,30.80
2018-12-08T02:23:06.176Z,30.90
2018-12-08T02:25:40.212Z,30.90
2018-12-08T02:28:15.511Z,30.90
2018-12-08T02:30:49.851Z,31.00
2018-12-08T02:33:24.214Z,31.00
2018-12-08T02:35:58.363Z,31.10
2018-12-08T02:38:32.673Z,31.10
2018-12-08T02:41:06.630Z,31.10
2018-12-08T02:43:40.743Z,31.10
2018-12-08T02:46:16.542Z,31.20
2018-12-08T02:48:50.832Z,31.30
2018-12-08T02:51:24.717Z,31.30
2018-12-08T02:53:58.402Z,31.30
2018-12-08T02:56:32.990Z,31.40
2018-12-08T02:59:07.840Z,31.40
2018-12-08T03:01:41.798Z,31.50
2018-12-08T03:04:15.594Z,31.60
2018-12-08T03:06:49.707Z,31.60
2018-12-08T03:09:24.327Z,31.60
2018-12-08T03:11:59.431Z,31.70
2018-12-08T03:14:33.447Z,31.70
2018-12-08T03:17:07.470Z,31.80
2018-12-08T03:19:41.421Z,31.80
2018-12-08T03:22:15.848Z,31.80
2018-12-08T03:24:50.950Z,31.80
2018-12-08T03:27:25.053Z,31.90
2018-12-08T03:29:59.041Z,31.90
2018-12-08T03:32:32.916Z,31.90
2018-12-08T03:35:07.551Z,31.90
2018-12-08T03:37:42.782Z,32.00
2018-12-08T03:40:17.059Z,32.00
2018-12-08T03:42:51.408Z,32.00
2018-12-08T03:45:25.183Z,32.00
2018-12-08T03:47:58.920Z,31.90
2018-12-08T03:50:32.626Z,31.90
2018-12-08T03:53:07.884Z,31.90
2018-12-08T03:55:42.353Z,31.90
2018-12-08T03:58:16.086Z,31.90
2018-12-08T04:00:49.903Z,31.90
2018-12-08T04:03:24.399Z,31.90
2018-12-08T04:05:58.197Z,32.00
2018-12-08T04:08:32.149Z,32.00
2018-12-08T04:11:06.741Z,32.10
2018-12-08T04:13:41.277Z,32.20
2018-12-08T04:16:15.499Z,32.30
2018-12-08T04:18:49.638Z,32.40
2018-12-08T04:21:23.470Z,32.40
2018-12-08T04:23:57.568Z,32.50
2018-12-08T04:26:31.416Z,32.60
2018-12-08T04:29:05.100Z,32.60
2018-12-08T04:31:39.395Z,32.70
2018-12-08T04:34:14.351Z,32.70
2018-12-08T04:36:48.019Z,32.70
2018-12-08T04:39:23.120Z,32.70
2018-12-08T04:41:57.259Z,32.70
2018-12-08T04:44:31.687Z,32.70
2018-12-08T04:47:05.398Z,32.70
2018-12-08T04:49:39.362Z,32.70
2018-12-08T04:52:13.156Z,32.60
2018-12-08T04:54:47.022Z,32.60
2018-12-08T04:57:21.765Z,32.60
2018-12-08T04:59:56.003Z,32.60
2018-12-08T05:02:30.910Z,32.60
2018-12-08T05:05:04.551Z,32.60
2018-12-08T05:07:38.809Z,32.70
2018-12-08T05:10:12.987Z,32.60
2018-12-08T05:12:50.204Z,32.70
2018-12-08T05:15:24.800Z,32.70
2018-12-08T05:17:58.800Z,32.70
2018-12-08T05:20:33.179Z,32.80
2018-12-08T05:23:07.746Z,32.70
2018-12-08T05:25:42.550Z,32.80
2018-12-08T05:28:16.559Z,32.80
2018-12-08T05:30:51.268Z,32.80
2018-12-08T05:33:25.619Z,32.90
2018-12-08T05:35:59.426Z,32.80
2018-12-08T05:38:34.075Z,32.90
2018-12-08T05:41:09.115Z,32.90
2018-12-08T05:43:43.290Z,32.90
2018-12-08T05:46:17.086Z,32.90
2018-12-08T05:48:51.238Z,32.90
2018-12-08T05:51:25.343Z,32.90
2018-12-08T05:53:59.300Z,32.90
2018-12-08T05:56:33.626Z,32.80
2018-12-08T05:59:07.626Z,32.80
2018-12-08T06:01:44.150Z,32.80
2018-12-08T06:04:18.270Z,32.70
2018-12-08T06:06:52.216Z,32.70
2018-12-08T06:09:25.983Z,32.60
2018-12-08T06:12:00.643Z,32.60
2018-12-08T06:14:37.430Z,32.60
2018-12-08T06:17:11.715Z,32.50
2018-12-08T06:19:45.594Z,32.50
2018-12-08T06:22:19.670Z,32.50
2018-12-08T06:24:53.768Z,32.50
2018-12-08T06:28:35.790Z,32.40
2018-12-08T06:31:10.170Z,32.40
2018-12-08T06:33:44.283Z,32.40
2018-12-08T06:36:19.608Z,32.40
2018-12-08T06:38:53.358Z,32.40
2018-12-08T06:41:28.693Z,32.30
2018-12-08T06:44:03.062Z,32.30
2018-12-08T06:46:37.378Z,32.30
2018-12-08T06:49:11.424Z,32.30
2018-12-08T06:51:46.308Z,32.20
2018-12-08T06:54:20.326Z,32.20
2018-12-08T06:56:53.745Z,32.20
2018-12-08T06:59:27.784Z,32.20
2018-12-08T07:02:03.533Z,32.10
2018-12-08T07:04:37.737Z,32.10
2018-12-08T07:07:11.730Z,32.10
2018-12-08T07:09:46.941Z,32.20
2018-12-08T07:12:20.914Z,32.10
2018-12-08T07:14:55.961Z,32.10
2018-12-08T07:17:30.852Z,32.10
2018-12-08T07:20:06.231Z,32.10
2018-12-08T07:22:40.249Z,32.10
2018-12-08T07:25:14.175Z,32.10
2018-12-08T07:27:48.025Z,32.00
2018-12-08T07:30:22.989Z,32.00
2018-12-08T07:32:59.601Z,32.00
2018-12-08T07:35:35.551Z,32.00
2018-12-08T07:38:10.397Z,32.00
2018-12-08T07:40:44.738Z,32.00
2018-12-08T07:43:18.406Z,32.00
2018-12-08T07:45:52.500Z,32.00
2018-12-08T07:48:26.470Z,32.00
2018-12-08T07:51:00.438Z,32.00
2018-12-08T07:53:34.597Z,32.00
2018-12-08T07:56:08.936Z,32.00
2018-12-08T07:58:44.248Z,32.00
2018-12-08T08:01:18.155Z,32.00
2018-12-08T08:03:52.144Z,32.00
2018-12-08T08:06:25.900Z,32.00
2018-12-08T08:09:00.263Z,32.00
2018-12-08T08:11:34.334Z,32.10
2018-12-08T08:14:08.396Z,32.10
2018-12-08T08:16:43.505Z,32.10
2018-12-08T08:19:17.078Z,32.10
2018-12-08T08:21:51.426Z,32.10
2018-12-08T08:24:25.445Z,32.10
2018-12-08T08:27:00.432Z,32.10
2018-12-08T08:29:35.235Z,32.20
2018-12-08T08:32:40.035Z,32.10
2018-12-08T08:35:14.914Z,32.10
2018-12-08T08:37:49.141Z,32.10
2018-12-08T08:40:23.379Z,32.10
2018-12-08T08:42:57.230Z,32.10
2018-12-08T08:45:31.339Z,32.10
2018-12-08T08:48:06.153Z,32.10
2018-12-08T08:50:42.469Z,32.10
2018-12-08T08:53:16.810Z,32.00
2018-12-08T08:55:50.713Z,31.90
2018-12-08T08:58:25.578Z,31.90
2018-12-08T09:00:59.967Z,31.80
2018-12-08T09:03:36.048Z,31.80
2018-12-08T09:06:10.114Z,31.80
2018-12-08T09:08:44.715Z,31.70
2018-12-08T09:11:19.199Z,31.70
2018-12-08T09:13:53.156Z,31.70
2018-12-08T09:16:27.386Z,31.60
2018-12-08T09:19:01.703Z,31.60
2018-12-08T09:21:35.690Z,31.60
2018-12-08T09:24:10.018Z,31.60
2018-12-08T09:26:44.203Z,31.50
2018-12-08T09:29:18.463Z,31.50
2018-12-08T09:31:54.829Z,31.40
2018-12-08T09:34:29.193Z,31.40
2018-12-08T09:37:02.608Z,31.40
2018-12-08T09:39:36.737Z,31.30
2018-12-08T09:42:10.609Z,31.30
2018-12-08T09:44:44.836Z,31.30
2018-12-08T09:47:18.745Z,31.30
2018-12-08T09:49:52.811Z,31.20
2018-12-08T09:52:26.935Z,31.20
2018-12-08T09:55:00.661Z,31.20
2018-12-08T09:57:35.065Z,31.20
2018-12-08T10:00:09.110Z,31.20
2018-12-08T10:02:44.435Z,31.20
2018-12-08T10:05:18.477Z,31.20
2018-12-08T10:07:52.593Z,31.20
2018-12-08T10:10:26.577Z,31.10
2018-12-08T10:13:00.907Z,31.20
2018-12-08T10:15:35.748Z,31.20
2018-12-08T10:18:09.809Z,31.20
2018-12-08T10:20:44.339Z,31.20
2018-12-08T10:23:18.468Z,31.20
2018-12-08T10:25:52.222Z,31.10
2018-12-08T10:28:28.091Z,31.10
2018-12-08T10:31:02.752Z,31.10
2018-12-08T10:33:36.791Z,31.10
2018-12-08T10:36:10.821Z,31.10
2018-12-08T10:38:45.066Z,31.10
2018-12-08T10:41:19.130Z,31.10
2018-12-08T10:43:53.133Z,31.10
2018-12-08T10:46:26.940Z,31.10
2018-12-08T10:49:01.329Z,31.00
2018-12-08T10:51:35.230Z,31.00
2018-12-08T10:54:09.052Z,30.90
2018-12-08T10:56:45.458Z,30.90
2018-12-08T10:59:19.835Z,30.90
2018-12-08T11:02:02.339Z,30.80
2018-12-08T11:04:36.275Z,30.80
2018-12-08T11:07:10.233Z,30.80
2018-12-08T11:09:44.196Z,30.80
2018-12-08T11:12:18.431Z,30.80
2018-12-08T11:15:00.463Z,30.70
2018-12-08T11:17:30.013Z,30.70
2018-12-08T11:20:05.063Z,30.70
2018-12-08T11:22:40.040Z,30.70
2018-12-08T11:25:14.407Z,30.70
2018-12-08T11:27:48.738Z,30.70
2018-12-08T11:30:22.751Z,30.70
2018-12-08T11:32:56.931Z,30.70
2018-12-08T11:35:32.885Z,30.70
2018-12-08T11:38:07.147Z,30.70
2018-12-08T11:40:41.151Z,30.70
2018-12-08T11:43:16.377Z,30.70
2018-12-08T11:45:50.880Z,30.80
2018-12-08T11:48:24.774Z,30.70
2018-12-08T11:50:59.351Z,30.80
2018-12-08T11:53:33.424Z,30.80
2018-12-08T11:56:07.382Z,30.80
2018-12-08T11:58:44.175Z,30.80
2018-12-08T12:01:18.090Z,30.80
2018-12-08T12:03:52.511Z,30.80
2018-12-08T12:06:26.269Z,30.80
2018-12-08T12:09:00.594Z,30.80
2018-12-08T12:11:35.967Z,30.80
2018-12-08T12:14:15.548Z,30.80
2018-12-08T12:16:54.169Z,30.70
2018-12-08T12:19:30.809Z,30.70
2018-12-08T12:22:07.172Z,30.70
2018-12-08T12:24:42.745Z,30.70
2018-12-08T12:27:16.570Z,30.70
2018-12-08T12:29:50.382Z,30.70
2018-12-08T12:32:25.236Z,30.70
2018-12-08T12:34:59.522Z,30.70
2018-12-08T12:37:33.684Z,30.70
2018-12-08T12:40:07.448Z,30.60
2018-12-08T12:42:41.565Z,30.60
2018-12-08T12:45:15.502Z,30.60
2018-12-08T12:47:49.683Z,30.60
2018-12-08T12:50:23.418Z,30.50
2018-12-08T12:52:58.002Z,30.60
2018-12-08T12:55:32.039Z,30.60
2018-12-08T12:58:06.208Z,30.60
2018-12-08T13:00:40.707Z,30.60
2018-12-08T13:03:14.565Z,30.60
2018-12-08T13:05:48.862Z,30.60
2018-12-08T13:08:23.334Z,30.50
2018-12-08T13:10:57.587Z,30.50
2018-12-08T13:13:31.595Z,30.50
2018-12-08T13:16:06.589Z,30.50
2018-12-08T13:18:41.333Z,30.50
2018-12-08T13:21:16.157Z,30.50
2018-12-08T13:23:51.147Z,30.50
2018-12-08T13:26:27.225Z,30.50
2018-12-08T13:29:01.908Z,30.50
2018-12-08T13:31:36.800Z,30.50
2018-12-08T13:34:19.412Z,30.50
2018-12-08T13:36:54.890Z,30.50
2018-12-08T13:39:29.240Z,30.40
2018-12-08T13:42:04.123Z,30.40
2018-12-08T13:44:42.311Z,30.40
2018-12-08T13:47:16.679Z,30.40
2018-12-08T13:49:51.970Z,30.40
2018-12-08T13:52:26.276Z,30.40
2018-12-08T13:55:01.236Z,30.30
2018-12-08T13:57:36.238Z,30.30
2018-12-08T14:00:12.480Z,30.30
2018-12-08T14:02:46.910Z,30.30
2018-12-08T14:05:20.766Z,30.30
2018-12-08T14:07:55.222Z,30.30
2018-12-08T14:10:30.267Z,30.30
2018-12-08T14:13:04.346Z,30.30
2018-12-08T14:15:43.867Z,30.30
2018-12-08T14:18:18.504Z,30.20
2018-12-08T14:20:52.192Z,30.20
2018-12-08T14:23:26.467Z,30.20
2018-12-08T14:26:00.373Z,30.20
2018-12-08T14:28:35.761Z,30.10
2018-12-08T14:31:09.706Z,30.10
2018-12-08T14:33:43.541Z,30.10
2018-12-08T14:36:17.499Z,30.10
2018-12-08T14:38:57.445Z,30.20
2018-12-08T14:41:29.516Z,30.20
2018-12-08T14:44:03.854Z,30.10
2018-12-08T14:46:39.738Z,30.10
2018-12-08T14:49:14.618Z,30.10
2018-12-08T14:51:49.065Z,30.10
2018-12-08T14:54:23.178Z,30.10
2018-12-08T14:56:57.384Z,30.10
2018-12-08T14:59:31.288Z,30.10
2018-12-08T15:02:05.124Z,30.10
2018-12-08T15:04:39.682Z,30.10
2018-12-08T15:07:14.578Z,30.10
2018-12-08T15:09:48.498Z,30.10
2018-12-08T15:12:22.993Z,30.10
2018-12-08T15:14:56.666Z,30.10
2018-12-08T15:17:31.573Z,30.10
2018-12-08T15:20:05.658Z,30.10
2018-12-08T15:22:39.819Z,30.20
2018-12-08T15:25:15.668Z,30.10
2018-12-08T15:27:49.835Z,30.20
2018-12-08T15:30:24.941Z,30.20
2018-12-08T15:32:59.720Z,30.20
2018-12-08T15:35:34.216Z,30.20
2018-12-08T15:38:10.658Z,30.20
2018-12-08T15:40:44.528Z,30.30
2018-12-08T15:43:20.516Z,30.30
2018-12-08T15:45:54.663Z,30.30
2018-12-08T15:48:28.584Z,30.30
2018-12-08T15:51:03.361Z,30.30
2018-12-08T15:53:38.430Z,30.30
2018-12-08T15:56:13.054Z,30.30
2018-12-08T15:58:47.359Z,30.30
2018-12-08T16:01:21.071Z,30.30
2018-12-08T16:03:55.648Z,30.20
2018-12-08T16:06:29.977Z,30.30
2018-12-08T16:09:04.454Z,30.30
2018-12-08T16:11:39.283Z,30.20
2018-12-08T16:14:13.312Z,30.30
2018-12-08T16:16:47.591Z,30.20
2018-12-08T16:19:21.101Z,30.20
2018-12-08T16:21:55.399Z,30.20
2018-12-08T16:24:29.169Z,30.20
2018-12-08T16:27:02.887Z,30.20
2018-12-08T16:29:37.870Z,30.20
2018-12-08T16:32:12.337Z,30.20
2018-12-08T16:34:47.388Z,30.20
2018-12-08T16:37:21.566Z,30.20
2018-12-08T16:39:56.430Z,30.10
2018-12-08T16:42:30.370Z,30.10
2018-12-08T16:45:04.299Z,30.10
2018-12-08T16:47:38.053Z,30.10
2018-12-08T16:50:13.351Z,30.10
2018-12-08T16:52:47.272Z,30.10
2018-12-08T16:55:21.500Z,30.10
2018-12-08T16:57:55.953Z,30.10
2018-12-08T17:00:30.774Z,30.10
2018-12-08T17:03:05.135Z,30.10
2018-12-08T17:05:38.828Z,30.10
2018-12-08T17:08:14.828Z,30.00
2018-12-08T17:10:48.650Z,30.00
2018-12-08T17:13:23.373Z,30.10
2018-12-08T17:15:57.759Z,30.10
2018-12-08T17:18:31.899Z,30.10
2018-12-08T17:21:07.481Z,30.10
2018-12-08T17:23:41.515Z,30.10
2018-12-08T17:26:15.763Z,30.00
2018-12-08T17:28:49.984Z,30.00
2018-12-08T17:31:23.973Z,30.10
2018-12-08T17:33:59.515Z,30.00
2018-12-08T17:36:33.957Z,30.00
2018-12-08T17:39:09.590Z,30.00
2018-12-08T17:41:43.959Z,30.00
2018-12-08T17:44:18.102Z,30.00
2018-12-08T17:46:51.493Z,30.00
2018-12-08T17:49:26.639Z,30.00
2018-12-08T17:52:00.699Z,30.00
2018-12-08T17:54:35.789Z,30.00
2018-12-08T17:57:10.142Z,30.00
2018-12-08T17:59:44.453Z,30.00
2018-12-08T18:02:21.027Z,30.00
2018-12-08T18:04:55.309Z,30.00
2018-12-08T18:07:29.089Z,30.00
2018-12-08T18:10:04.162Z,30.00
2018-12-08T18:12:38.396Z,29.90
2018-12-08T18:15:12.396Z,29.90
2018-12-08T18:17:46.547Z,29.90
2018-12-08T18:20:20.571Z,30.00
2018-12-08T18:22:56.107Z,29.90
2018-12-08T18:25:30.263Z,29.90
2018-12-08T18:28:04.160Z,30.00
2018-12-08T18:30:38.263Z,29.90
2018-12-08T18:33:12.302Z,29.90
2018-12-08T18:35:47.266Z,29.90
2018-12-08T18:38:20.905Z,29.90
2018-12-08T18:40:55.477Z,29.90
2018-12-08T18:43:29.634Z,29.90
2018-12-08T18:46:03.947Z,29.90
2018-12-08T18:48:37.964Z,29.90
2018-12-08T18:51:12.162Z,29.90
2018-12-08T18:53:46.171Z,29.90
2018-12-08T18:56:20.280Z,29.90
2018-12-08T18:58:54.936Z,29.90
2018-12-08T19:01:29.440Z,29.80
2018-12-08T19:04:04.464Z,29.90
2018-12-08T19:06:38.415Z,29.80
2018-12-08T19:09:13.663Z,29.80
2018-12-08T19:11:47.625Z,29.80
2018-12-08T19:14:21.472Z,29.80
2018-12-08T19:16:55.397Z,29.80
2018-12-08T19:19:29.467Z,29.80
2018-12-08T19:22:04.163Z,29.80
2018-12-08T19:24:39.232Z,29.70
2018-12-08T19:27:14.667Z,29.70
2018-12-08T19:29:48.814Z,29.70
2018-12-08T19:32:23.330Z,29.70
2018-12-08T19:34:57.763Z,29.70
2018-12-08T19:37:32.744Z,29.70
2018-12-08T19:40:06.953Z,29.70
2018-12-08T19:42:40.815Z,29.70
2018-12-08T19:48:06.065Z,29.70
2018-12-08T19:50:40.237Z,29.70
2018-12-08T19:53:14.598Z,29.70
2018-12-08T19:55:48.431Z,29.70
2018-12-08T19:58:22.329Z,29.70
2018-12-08T20:00:56.240Z,29.70
2018-12-08T20:03:30.352Z,29.70
2018-12-08T20:06:04.789Z,29.60
2018-12-08T20:08:38.734Z,29.60
2018-12-08T20:11:13.153Z,29.60
2018-12-08T20:13:48.305Z,29.60
2018-12-08T20:16:22.582Z,29.60
2018-12-08T20:18:56.727Z,29.60
2018-12-08T20:21:30.900Z,29.60
2018-12-08T20:24:05.946Z,29.60
2018-12-08T20:26:40.411Z,29.60
2018-12-08T20:29:14.360Z,29.60
2018-12-08T20:31:48.856Z,29.50
2018-12-08T20:34:22.718Z,29.50
2018-12-08T20:36:59.928Z,29.50
2018-12-08T20:39:35.145Z,29.50
2018-12-08T20:42:09.564Z,29.50
2018-12-08T20:44:43.779Z,29.50
2018-12-08T20:47:17.723Z,29.50
2018-12-08T20:49:52.152Z,29.50
2018-12-08T20:52:26.254Z,29.60
2018-12-08T20:55:00.348Z,29.60
2018-12-08T20:57:34.133Z,29.60
2018-12-08T21:00:08.594Z,29.60
2018-12-08T21:02:43.579Z,29.50
2018-12-08T21:05:17.655Z,29.60
2018-12-08T21:07:51.684Z,29.50
2018-12-08T21:10:25.717Z,29.50
2018-12-08T21:13:00.065Z,29.50
2018-12-08T21:15:35.411Z,29.50
2018-12-08T21:18:09.929Z,29.50
2018-12-08T21:20:43.559Z,29.50
2018-12-08T21:23:17.881Z,29.50
2018-12-08T21:25:51.692Z,29.50
2018-12-08T21:28:25.759Z,29.40
2018-12-08T21:31:00.041Z,29.40
2018-12-08T21:33:35.254Z,29.40
2018-12-08T21:36:09.171Z,29.40
2018-12-08T21:38:43.034Z,29.40
2018-12-08T21:41:17.942Z,29.40
2018-12-08T21:43:52.722Z,29.40
2018-12-08T21:46:26.427Z,29.40
2018-12-08T21:49:00.927Z,29.40
2018-12-08T21:51:35.699Z,29.30
2018-12-08T21:54:10.153Z,29.30
2018-12-08T21:56:45.384Z,29.30
2018-12-08T21:59:21.501Z,29.30
2018-12-08T22:01:56.776Z,29.30
2018-12-08T22:04:30.806Z,29.30
2018-12-08T22:07:04.758Z,29.30
2018-12-08T22:09:38.482Z,29.20
2018-12-08T22:12:12.336Z,29.20
2018-12-08T22:14:49.976Z,29.20
2018-12-08T22:17:23.967Z,29.20
2018-12-08T22:19:58.606Z,29.20
2018-12-08T22:22:32.497Z,29.20
2018-12-08T22:25:06.587Z,29.20
2018-12-08T22:27:41.367Z,29.20
2018-12-08T22:30:14.818Z,29.20
2018-12-08T22:32:49.087Z,29.10
2018-12-08T22:35:24.710Z,29.10
2018-12-08T22:37:58.800Z,29.10
2018-12-08T22:40:32.742Z,29.10
2018-12-08T22:43:08.172Z,29.10
2018-12-08T22:45:41.837Z,29.00
2018-12-08T22:48:15.771Z,28.90
2018-12-08T22:50:49.710Z,28.90
2018-12-08T22:53:23.830Z,28.90
2018-12-08T22:56:00.039Z,28.90
2018-12-08T22:58:33.869Z,28.90
2018-12-08T23:01:08.091Z,28.90
2018-12-08T23:03:42.054Z,28.80
2018-12-08T23:06:16.589Z,28.80
2018-12-08T23:08:50.565Z,28.80
2018-12-08T23:11:25.643Z,28.80
2018-12-08T23:14:00.002Z,28.80
2018-12-08T23:16:33.957Z,28.80
2018-12-08T23:19:07.803Z,28.80
2018-12-08T23:21:42.042Z,28.80
2018-12-08T23:24:16.023Z,28.80
2018-12-08T23:26:50.517Z,28.80
2018-12-08T23:29:24.621Z,28.80
2018-12-08T23:31:58.579Z,28.80
2018-12-08T23:34:33.072Z,28.80
2018-12-08T23:37:07.116Z,28.80
2018-12-08T23:39:41.094Z,28.70
2018-12-08T23:42:15.347Z,28.70
2018-12-08T23:44:50.351Z,28.70
2018-12-08T23:47:24.214Z,28.70
2018-12-08T23:49:58.254Z,28.70
2018-12-08T23:52:33.007Z,28.70
2018-12-08T23:55:07.162Z,28.70
2018-12-08T23:57:49.399Z,28.70
